Hayneville, Alabama
Current Conditions -  °F | °C
As of 9:53 PM on Sunday 25 Jan 2015 (Local Time) from KMGM Reporting Station
Broken Clouds Broken Clouds  
Wind Chill: 50°   Ceiling: 10000
Heat Index: 50°   Visibility: 10mi
Dew Point: 42°   Wind: 5mph
Humidity: 74%   Direction: 220°SW
Pressure: 29.83"   Gusts: NA
Location:  32.18°N, 86.58°W
Report Text: KMGM 260353Z 22004KT 10SM BKN100 10/06 A2983 RMK AO2 SLP100 T01000056 $
Loading
Personal Weather Stations






























Interactive Weather Map New forecast layout! Learn more

10-Day Weather Forecast

Advertisements
Track Severe Weather on mobile